createdAt,value
2023-05-21T00:01:30.105Z,17.27
2023-05-21T00:03:59.889Z,16.00
2023-05-21T00:06:28.638Z,18.40
2023-05-21T00:08:58.433Z,14.47
2023-05-21T00:11:27.533Z,15.73
2023-05-21T00:13:56.181Z,15.00
2023-05-21T00:16:25.114Z,15.63
2023-05-21T00:18:54.677Z,14.97
2023-05-21T00:21:23.233Z,14.70
2023-05-21T00:23:51.517Z,13.53
2023-05-21T00:26:21.674Z,13.17
2023-05-21T00:28:50.823Z,12.53
2023-05-21T00:31:19.391Z,13.97
2023-05-21T00:33:47.907Z,28.48
2023-05-21T00:36:16.580Z,16.48
2023-05-21T00:38:46.078Z,14.93
2023-05-21T00:41:14.672Z,17.58
2023-05-21T00:43:44.753Z,17.13
2023-05-21T00:46:17.877Z,18.67
2023-05-21T00:48:47.177Z,17.55
2023-05-21T00:51:16.717Z,18.98
2023-05-21T00:53:46.686Z,18.13
2023-05-21T00:56:15.232Z,17.23
2023-05-21T00:58:45.115Z,17.33
2023-05-21T01:01:14.214Z,17.75
2023-05-21T01:03:43.496Z,20.05
2023-05-21T01:06:14.038Z,17.13
2023-05-21T01:08:42.917Z,17.30
2023-05-21T01:11:12.604Z,16.88
2023-05-21T01:13:42.201Z,16.45
2023-05-21T01:16:13.696Z,27.08
2023-05-21T01:18:45.330Z,20.75
2023-05-21T01:21:17.537Z,18.60
2023-05-21T01:23:47.487Z,16.13
2023-05-21T01:26:16.068Z,16.52
2023-05-21T01:28:44.375Z,16.35
2023-05-21T01:31:24.614Z,15.65
2023-05-21T01:33:54.981Z,15.40
2023-05-21T01:36:26.887Z,15.57
2023-05-21T01:39:02.196Z,15.68
2023-05-21T01:41:36.120Z,16.63
2023-05-21T01:44:07.357Z,17.10
2023-05-21T01:46:37.346Z,15.50
2023-05-21T01:49:07.021Z,17.40
2023-05-21T01:51:36.031Z,16.77
2023-05-21T01:54:05.867Z,15.35
2023-05-21T01:56:34.354Z,14.90
2023-05-21T01:59:02.860Z,16.88
2023-05-21T02:01:31.385Z,15.13
2023-05-21T02:03:59.805Z,16.27
2023-05-21T02:06:28.147Z,15.18
2023-05-21T02:08:56.779Z,13.93
2023-05-21T02:11:27.010Z,15.55
2023-05-21T02:13:57.368Z,14.35
2023-05-21T02:16:26.776Z,15.40
2023-05-21T02:18:57.506Z,15.85
2023-05-21T02:21:26.088Z,13.70
2023-05-21T02:23:54.397Z,13.70
2023-05-21T02:26:23.216Z,13.25
2023-05-21T02:28:54.039Z,14.32
2023-05-21T02:31:22.348Z,13.50
2023-05-21T02:33:50.689Z,12.88
2023-05-21T02:36:19.129Z,12.73
2023-05-21T02:38:47.895Z,13.98
2023-05-21T02:41:16.487Z,15.95
2023-05-21T02:43:44.851Z,12.43
2023-05-21T02:46:14.739Z,13.43
2023-05-21T02:48:43.116Z,13.15
2023-05-21T02:51:11.576Z,15.40
2023-05-21T02:53:40.574Z,14.95
2023-05-21T02:56:09.173Z,13.98
2023-05-21T02:58:37.467Z,15.13
2023-05-21T03:01:05.856Z,15.05
2023-05-21T03:03:35.693Z,13.80
2023-05-21T03:06:05.129Z,14.65
2023-05-21T03:08:33.495Z,14.45
2023-05-21T03:11:01.981Z,16.17
2023-05-21T03:13:30.415Z,16.40
2023-05-21T03:15:58.844Z,18.52
2023-05-21T03:18:27.197Z,24.23
2023-05-21T03:20:58.920Z,25.00
2023-05-21T03:23:27.499Z,21.65
2023-05-21T03:25:55.983Z,23.65
2023-05-21T03:28:24.338Z,23.40
2023-05-21T03:30:53.463Z,23.73
2023-05-21T03:33:41.729Z,22.88
2023-05-21T03:36:31.350Z,22.98
2023-05-21T03:38:59.997Z,23.80
2023-05-21T03:41:28.512Z,26.27
2023-05-21T03:44:02.875Z,28.17
2023-05-21T03:46:38.441Z,26.80
2023-05-21T03:49:13.398Z,24.65
2023-05-21T03:51:43.518Z,25.25
2023-05-21T03:54:16.045Z,23.80
2023-05-21T03:56:44.860Z,21.85
2023-05-21T03:59:13.643Z,24.42
2023-05-21T04:01:42.789Z,22.77
2023-05-21T04:04:14.250Z,23.30
2023-05-21T04:06:44.597Z,24.33
2023-05-21T04:09:14.461Z,26.95
2023-05-21T04:11:42.815Z,23.08
2023-05-21T04:14:12.045Z,20.63
2023-05-21T04:16:43.995Z,21.00
2023-05-21T04:19:12.371Z,21.35
2023-05-21T04:21:45.146Z,22.73
2023-05-21T04:24:15.436Z,23.90
2023-05-21T04:27:02.027Z,19.27
2023-05-21T04:29:32.785Z,20.60
2023-05-21T04:32:01.159Z,20.90
2023-05-21T04:34:29.775Z,20.30
2023-05-21T04:36:59.575Z,18.67
2023-05-21T04:39:28.603Z,17.43
2023-05-21T04:41:57.104Z,17.27
2023-05-21T04:44:26.192Z,16.17
2023-05-21T04:46:55.266Z,18.80
2023-05-21T04:49:23.549Z,16.73
2023-05-21T04:51:51.876Z,19.10
2023-05-21T04:54:21.616Z,17.07
2023-05-21T04:56:49.921Z,16.23
2023-05-21T04:59:18.708Z,18.13
2023-05-21T05:01:47.904Z,16.73
2023-05-21T05:04:16.169Z,20.83
2023-05-21T05:06:44.596Z,16.43
2023-05-21T05:09:12.987Z,15.23
2023-05-21T05:11:42.889Z,16.20
2023-05-21T05:14:11.268Z,14.50
2023-05-21T05:16:40.147Z,16.53
2023-05-21T05:19:08.749Z,14.80
2023-05-21T05:21:37.934Z,15.70
2023-05-21T05:24:07.141Z,16.07
2023-05-21T05:26:36.353Z,13.97
2023-05-21T05:29:06.043Z,13.97
2023-05-21T05:31:34.375Z,14.37
2023-05-21T05:34:03.181Z,14.83
2023-05-21T05:36:31.665Z,14.63
2023-05-21T05:39:00.212Z,15.30
2023-05-21T05:41:29.041Z,15.03
2023-05-21T05:43:57.696Z,15.50
2023-05-21T05:46:30.572Z,16.13
2023-05-21T05:48:59.271Z,14.10
2023-05-21T05:51:27.542Z,16.10
2023-05-21T05:53:55.922Z,16.50
2023-05-21T05:56:24.233Z,14.77
2023-05-21T05:58:52.558Z,13.50
2023-05-21T06:01:24.838Z,14.67
2023-05-21T06:03:54.737Z,14.47
2023-05-21T06:06:23.163Z,14.03
2023-05-21T06:08:51.486Z,14.30
2023-05-21T06:11:21.733Z,14.27
2023-05-21T06:13:50.020Z,12.50
2023-05-21T06:16:19.274Z,11.13
2023-05-21T06:18:48.440Z,11.40
2023-05-21T06:21:18.385Z,11.43
2023-05-21T06:23:47.003Z,11.37
2023-05-21T06:26:15.338Z,9.60
2023-05-21T06:28:43.651Z,11.40
2023-05-21T06:31:13.762Z,9.80
2023-05-21T06:33:43.868Z,9.57
2023-05-21T06:36:12.552Z,9.80
2023-05-21T06:38:43.871Z,8.83
2023-05-21T06:41:12.917Z,10.83
2023-05-21T06:43:51.573Z,9.83
2023-05-21T06:46:38.582Z,9.03
2023-05-21T06:49:10.286Z,10.43
2023-05-21T06:51:39.510Z,9.77
2023-05-21T06:54:09.224Z,10.40
2023-05-21T06:56:39.380Z,9.87
2023-05-21T06:59:07.689Z,12.20
2023-05-21T07:01:36.020Z,11.13
2023-05-21T07:04:04.448Z,10.20
2023-05-21T07:06:33.186Z,10.00
2023-05-21T07:09:01.710Z,9.20
2023-05-21T07:11:33.089Z,9.73
2023-05-21T07:14:03.961Z,10.40
2023-05-21T07:16:34.714Z,9.53
2023-05-21T07:19:03.815Z,9.43
2023-05-21T07:21:32.213Z,15.50
2023-05-21T07:24:00.644Z,8.90
2023-05-21T07:26:29.064Z,11.50
2023-05-21T07:28:58.795Z,9.17
2023-05-21T07:31:28.108Z,8.53
2023-05-21T07:33:56.944Z,8.87
2023-05-21T07:36:30.025Z,9.03
2023-05-21T07:38:58.343Z,8.77
2023-05-21T07:41:26.640Z,9.23
2023-05-21T07:43:55.030Z,8.80
2023-05-21T07:46:25.346Z,8.57
2023-05-21T07:48:56.720Z,8.43
2023-05-21T07:51:25.271Z,7.83
2023-05-21T07:53:55.273Z,9.70
2023-05-21T07:56:29.797Z,9.03
2023-05-21T07:58:58.317Z,8.57
2023-05-21T08:01:29.683Z,8.73
2023-05-21T08:04:00.935Z,8.43
2023-05-21T08:06:29.451Z,11.17
2023-05-21T08:08:57.681Z,9.90
2023-05-21T08:11:27.124Z,7.27
2023-05-21T08:13:56.472Z,8.40
2023-05-21T08:16:25.609Z,8.63
2023-05-21T08:18:55.257Z,6.60
2023-05-21T08:21:23.821Z,6.57
2023-05-21T08:23:54.074Z,5.90
2023-05-21T08:26:22.529Z,6.67
2023-05-21T08:28:50.881Z,6.23
2023-05-21T08:31:19.852Z,6.30
2023-05-21T08:33:51.849Z,6.53
2023-05-21T08:36:26.184Z,6.90
2023-05-21T08:39:00.277Z,12.33
2023-05-21T08:41:38.100Z,8.57
2023-05-21T08:44:13.372Z,6.93
2023-05-21T08:46:44.548Z,12.53
2023-05-21T08:49:14.343Z,7.90
2023-05-21T08:51:45.302Z,5.93
2023-05-21T08:54:14.514Z,6.00
2023-05-21T08:56:47.083Z,6.27
2023-05-21T08:59:19.443Z,6.27
2023-05-21T09:01:50.086Z,6.50
2023-05-21T09:04:30.378Z,5.40
2023-05-21T09:07:02.838Z,6.20
2023-05-21T09:10:14.252Z,6.67
2023-05-21T09:12:43.811Z,5.23
2023-05-21T09:15:12.843Z,6.17
2023-05-21T09:17:41.416Z,6.43
2023-05-21T09:20:30.481Z,6.27
2023-05-21T09:23:06.866Z,6.57
2023-05-21T09:25:39.728Z,6.40
2023-05-21T09:28:13.976Z,6.23
2023-05-21T09:30:46.788Z,5.67
2023-05-21T09:33:26.149Z,7.00
2023-05-21T09:35:54.825Z,6.83
2023-05-21T09:38:25.994Z,8.73
2023-05-21T09:40:57.010Z,8.33
2023-05-21T09:43:26.753Z,6.23
2023-05-21T09:45:58.961Z,6.67
2023-05-21T09:48:36.525Z,8.43
2023-05-21T09:51:13.860Z,5.57
2023-05-21T09:53:51.966Z,6.57
2023-05-21T09:56:25.507Z,5.67
2023-05-21T09:58:55.629Z,5.47
2023-05-21T10:01:25.351Z,5.83
2023-05-21T10:03:57.405Z,5.77
2023-05-21T10:06:27.570Z,4.80
2023-05-21T10:08:58.324Z,5.20
2023-05-21T10:11:27.907Z,6.97
2023-05-21T10:14:03.187Z,4.97
2023-05-21T10:16:34.143Z,5.53
2023-05-21T10:19:02.819Z,5.90
2023-05-21T10:21:31.942Z,5.57
2023-05-21T10:24:04.383Z,5.60
2023-05-21T10:26:32.886Z,6.00
2023-05-21T10:29:02.617Z,6.83
2023-05-21T10:31:31.001Z,5.80
2023-05-21T10:34:00.361Z,5.87
2023-05-21T10:36:32.224Z,5.47
2023-05-21T10:39:03.141Z,5.00
2023-05-21T10:41:42.895Z,6.10
2023-05-21T10:44:23.320Z,6.53
2023-05-21T10:47:09.575Z,5.97
2023-05-21T10:49:57.328Z,6.33
2023-05-21T10:52:39.536Z,5.73
2023-05-21T10:55:24.547Z,9.90
2023-05-21T10:58:13.692Z,8.10
2023-05-21T11:00:44.040Z,6.77
2023-05-21T11:03:15.088Z,7.50
2023-05-21T11:05:53.682Z,5.80
2023-05-21T11:08:26.257Z,5.53
2023-05-21T11:10:58.194Z,6.47
2023-05-21T11:13:27.591Z,9.30
2023-05-21T11:16:09.182Z,6.93
2023-05-21T11:19:02.888Z,5.87
2023-05-21T11:21:32.447Z,7.30
2023-05-21T11:24:04.077Z,6.90
2023-05-21T11:27:07.105Z,8.20
2023-05-21T11:29:44.268Z,6.63
2023-05-21T11:32:15.505Z,6.73
2023-05-21T11:34:46.008Z,9.37
2023-05-21T11:37:26.925Z,7.13
2023-05-21T11:39:56.022Z,6.60
2023-05-21T11:42:33.720Z,6.30
2023-05-21T11:45:04.141Z,8.30
2023-05-21T11:47:34.147Z,7.70
2023-05-21T11:50:04.068Z,7.60
2023-05-21T11:52:33.228Z,6.40
2023-05-21T11:55:01.747Z,6.57
2023-05-21T11:57:32.432Z,6.33
2023-05-21T12:00:02.305Z,5.77
2023-05-21T12:02:46.503Z,6.77
2023-05-21T12:05:15.279Z,7.97
2023-05-21T12:07:43.669Z,7.27
2023-05-21T12:10:13.252Z,8.10
2023-05-21T12:12:53.773Z,7.53
2023-05-21T12:15:26.045Z,8.00
2023-05-21T12:17:56.146Z,8.10
2023-05-21T12:20:24.580Z,11.27
2023-05-21T12:22:52.813Z,8.93
2023-05-21T12:25:21.738Z,9.97
2023-05-21T12:27:58.080Z,10.90
2023-05-21T12:30:27.248Z,8.27
2023-05-21T12:32:59.361Z,9.07
2023-05-21T12:35:27.834Z,7.37
2023-05-21T12:37:56.806Z,8.73
2023-05-21T12:40:36.465Z,8.13
2023-05-21T12:43:06.858Z,9.03
2023-05-21T12:45:36.744Z,7.73
2023-05-21T12:48:05.222Z,7.20
2023-05-21T12:50:35.610Z,7.27
2023-05-21T12:53:04.256Z,7.67
2023-05-21T12:55:33.015Z,9.67
2023-05-21T12:58:03.913Z,7.83
2023-05-21T13:00:34.187Z,9.50
2023-05-21T13:03:04.877Z,7.90
2023-05-21T13:05:33.492Z,7.13
2023-05-21T13:08:01.784Z,11.93
2023-05-21T13:10:30.053Z,7.30
2023-05-21T13:12:58.333Z,11.73
2023-05-21T13:15:26.592Z,7.93
2023-05-21T13:17:57.201Z,9.90
2023-05-21T13:20:27.720Z,9.17
2023-05-21T13:22:56.258Z,9.40
2023-05-21T13:25:29.113Z,22.97
2023-05-21T13:27:58.314Z,8.17
2023-05-21T13:30:26.724Z,7.40
2023-05-21T13:32:56.744Z,9.90
2023-05-21T13:35:25.056Z,9.17
2023-05-21T13:37:53.577Z,10.50
2023-05-21T13:40:21.906Z,10.47
2023-05-21T13:42:51.140Z,7.67
2023-05-21T13:45:21.565Z,8.60
2023-05-21T13:47:50.242Z,8.30
2023-05-21T13:50:20.041Z,7.07
2023-05-21T13:52:48.756Z,8.23
2023-05-21T13:55:17.094Z,9.70
2023-05-21T13:57:46.030Z,6.93
2023-05-21T14:00:16.127Z,7.50
2023-05-21T14:02:45.174Z,5.87
2023-05-21T14:05:14.018Z,9.60
2023-05-21T14:07:43.828Z,7.43
2023-05-21T14:10:13.516Z,6.33
2023-05-21T14:12:42.165Z,7.87
2023-05-21T14:15:12.010Z,7.60
2023-05-21T14:17:42.508Z,7.83
2023-05-21T14:20:11.956Z,7.73
2023-05-21T14:22:40.170Z,7.50
2023-05-21T14:25:10.858Z,8.87
2023-05-21T14:27:39.401Z,7.67
2023-05-21T14:30:08.935Z,8.13
2023-05-21T14:32:37.291Z,7.60
2023-05-21T14:35:06.834Z,8.63
2023-05-21T14:37:35.092Z,7.90
2023-05-21T14:40:03.632Z,7.60
2023-05-21T14:42:33.441Z,11.53
2023-05-21T14:45:17.477Z,7.27
2023-05-21T14:47:47.773Z,7.43
2023-05-21T14:50:17.416Z,7.90
2023-05-21T14:52:45.765Z,11.60
2023-05-21T14:55:16.514Z,9.07
2023-05-21T14:57:46.256Z,10.77
2023-05-21T15:00:15.441Z,10.03
2023-05-21T15:02:43.973Z,8.57
2023-05-21T15:05:12.348Z,10.70
2023-05-21T15:07:40.750Z,10.80
2023-05-21T15:10:10.550Z,13.60
2023-05-21T15:12:39.375Z,11.57
2023-05-21T15:15:10.127Z,9.40
2023-05-21T15:17:38.606Z,8.90
2023-05-21T15:20:08.066Z,8.23
2023-05-21T15:22:36.603Z,9.10
2023-05-21T15:25:05.856Z,13.93
2023-05-21T15:27:34.336Z,11.00
2023-05-21T15:30:03.060Z,14.57
2023-05-21T15:32:33.920Z,8.97
2023-05-21T15:35:02.324Z,9.83
2023-05-21T15:37:32.281Z,8.97
2023-05-21T15:40:00.897Z,11.07
2023-05-21T15:42:31.355Z,9.57
2023-05-21T15:44:59.750Z,7.40
2023-05-21T15:47:28.162Z,8.90
2023-05-21T15:49:58.856Z,11.20
2023-05-21T15:52:27.458Z,7.77
2023-05-21T15:54:56.223Z,8.13
2023-05-21T15:57:24.709Z,10.00
2023-05-21T15:59:53.119Z,8.83
2023-05-21T16:02:21.469Z,10.57
2023-05-21T16:04:51.885Z,13.43
2023-05-21T16:07:21.625Z,9.50
2023-05-21T16:09:49.878Z,8.23
2023-05-21T16:12:18.433Z,11.77
2023-05-21T16:14:50.189Z,7.50
2023-05-21T16:17:18.581Z,7.90
2023-05-21T16:19:47.406Z,8.77
2023-05-21T16:22:16.172Z,6.50
2023-05-21T16:24:46.171Z,7.03
2023-05-21T16:27:14.521Z,9.10
2023-05-21T16:29:43.085Z,6.33
2023-05-21T16:32:13.165Z,6.33
2023-05-21T16:34:41.601Z,6.53
2023-05-21T16:37:10.227Z,7.40
2023-05-21T16:39:38.643Z,14.30
2023-05-21T16:42:08.483Z,8.07
2023-05-21T16:44:37.964Z,6.80
2023-05-21T16:47:06.540Z,7.50
2023-05-21T16:49:34.991Z,8.13
2023-05-21T16:52:03.415Z,8.27
2023-05-21T16:54:31.815Z,8.60
2023-05-21T16:57:00.186Z,13.80
2023-05-21T16:59:30.453Z,7.93
2023-05-21T17:01:58.865Z,6.97
2023-05-21T17:04:27.322Z,7.77
2023-05-21T17:06:55.658Z,11.93
2023-05-21T17:09:24.138Z,7.60
2023-05-21T17:11:52.428Z,7.97
2023-05-21T17:14:33.299Z,8.23
2023-05-21T17:17:04.310Z,7.27
2023-05-21T17:19:32.718Z,7.83
2023-05-21T17:22:01.164Z,8.20
2023-05-21T17:24:29.631Z,7.93
2023-05-21T17:26:57.948Z,9.30
2023-05-21T17:29:26.457Z,7.20
2023-05-21T17:31:54.996Z,7.73
2023-05-21T17:34:29.346Z,8.13
2023-05-21T17:36:58.627Z,7.57
2023-05-21T17:39:27.449Z,9.40
2023-05-21T17:41:56.847Z,11.17
2023-05-21T17:44:25.038Z,9.27
2023-05-21T17:46:53.515Z,12.50
2023-05-21T17:49:21.851Z,8.70
2023-05-21T17:51:51.654Z,10.10
2023-05-21T17:54:21.298Z,14.80
2023-05-21T17:56:49.549Z,9.27
2023-05-21T17:59:17.902Z,9.67
2023-05-21T18:01:46.331Z,8.87
2023-05-21T18:04:14.691Z,10.00
2023-05-21T18:06:43.886Z,8.67
2023-05-21T18:09:15.233Z,9.67
2023-05-21T18:11:44.722Z,9.50
2023-05-21T18:14:13.182Z,9.90
2023-05-21T18:16:41.676Z,8.03
2023-05-21T18:19:10.095Z,9.20
2023-05-21T18:21:38.685Z,8.30
2023-05-21T18:24:07.852Z,11.37
2023-05-21T18:26:37.546Z,10.13
2023-05-21T18:29:05.863Z,13.20
2023-05-21T18:31:34.150Z,10.50
2023-05-21T18:34:02.465Z,12.03
2023-05-21T18:36:38.418Z,11.10
2023-05-21T18:39:07.667Z,11.03
2023-05-21T18:41:37.550Z,11.40
2023-05-21T18:44:07.086Z,11.17
2023-05-21T18:46:35.411Z,14.50
2023-05-21T18:49:03.804Z,10.70
2023-05-21T18:51:32.728Z,12.90
2023-05-21T18:54:00.965Z,12.50
2023-05-21T18:56:29.346Z,10.23
2023-05-21T18:58:59.086Z,9.40
2023-05-21T19:01:27.718Z,8.90
2023-05-21T19:03:56.173Z,14.03
2023-05-21T19:06:25.707Z,13.67
2023-05-21T19:08:54.629Z,14.90
2023-05-21T19:11:23.681Z,20.93
2023-05-21T19:13:52.118Z,16.27
2023-05-21T19:16:21.750Z,15.00
2023-05-21T19:18:50.235Z,12.33
2023-05-21T19:21:18.764Z,12.10
2023-05-21T19:23:53.066Z,9.53
2023-05-21T19:26:22.564Z,12.57
2023-05-21T19:28:53.698Z,10.83
2023-05-21T19:31:25.391Z,10.77
2023-05-21T19:33:54.077Z,11.03
2023-05-21T19:36:22.858Z,13.37
2023-05-21T19:38:51.935Z,10.83
2023-05-21T19:41:21.664Z,12.93
2023-05-21T19:43:50.063Z,10.57
2023-05-21T19:46:20.128Z,10.20
2023-05-21T19:48:51.371Z,11.90
2023-05-21T19:51:19.772Z,10.73
2023-05-21T19:53:48.710Z,13.53
2023-05-21T19:56:17.308Z,11.17
2023-05-21T19:58:48.047Z,9.83
2023-05-21T20:01:17.496Z,9.33
2023-05-21T20:03:46.293Z,9.13
2023-05-21T20:06:19.188Z,10.13
2023-05-21T20:08:48.026Z,9.77
2023-05-21T20:11:16.743Z,10.73
2023-05-21T20:13:48.538Z,9.67
2023-05-21T20:16:18.321Z,9.47
2023-05-21T20:18:47.351Z,8.33
2023-05-21T20:21:18.596Z,8.20
2023-05-21T20:23:47.207Z,8.17
2023-05-21T20:26:15.931Z,7.60
2023-05-21T20:28:44.428Z,7.57
2023-05-21T20:31:13.023Z,8.17
2023-05-21T20:33:41.941Z,9.30
2023-05-21T20:36:10.279Z,10.90
2023-05-21T20:38:42.063Z,11.10
2023-05-21T20:41:10.469Z,11.77
2023-05-21T20:43:38.867Z,10.70
2023-05-21T20:46:07.841Z,10.87
2023-05-21T20:48:37.908Z,10.00
2023-05-21T20:51:06.943Z,9.50
2023-05-21T20:53:35.643Z,9.77
2023-05-21T20:56:08.119Z,8.37
2023-05-21T20:58:36.948Z,7.10
2023-05-21T21:01:05.346Z,6.63
2023-05-21T21:03:34.970Z,7.57
2023-05-21T21:06:04.453Z,6.20
2023-05-21T21:08:34.624Z,10.03
2023-05-21T21:11:02.940Z,6.80
2023-05-21T21:13:32.621Z,6.20
2023-05-21T21:16:01.365Z,6.20
2023-05-21T21:18:29.821Z,6.53
2023-05-21T21:20:58.424Z,6.13
2023-05-21T21:23:30.574Z,5.73
2023-05-21T21:25:58.832Z,7.20
2023-05-21T21:28:27.271Z,6.83
2023-05-21T21:30:56.930Z,6.90
2023-05-21T21:33:26.730Z,6.73
2023-05-21T21:35:55.158Z,8.93
2023-05-21T21:38:23.472Z,7.43
2023-05-21T21:40:51.730Z,6.87
2023-05-21T21:43:20.039Z,6.83
2023-05-21T21:45:48.309Z,7.83
2023-05-21T21:48:17.971Z,7.63
2023-05-21T21:50:46.761Z,7.43
2023-05-21T21:53:15.121Z,7.37
2023-05-21T21:55:43.341Z,8.60
2023-05-21T21:58:11.592Z,7.43
2023-05-21T22:00:40.326Z,8.33
2023-05-21T22:03:08.791Z,8.17
2023-05-21T22:05:38.368Z,8.30
2023-05-21T22:08:06.994Z,7.60
2023-05-21T22:10:38.242Z,8.03
2023-05-21T22:13:06.828Z,8.20
2023-05-21T22:15:35.127Z,7.60
2023-05-21T22:18:03.467Z,7.80
2023-05-21T22:20:33.143Z,9.63
2023-05-21T22:23:02.788Z,9.47
2023-05-21T22:25:31.443Z,9.70
2023-05-21T22:28:00.100Z,8.90
2023-05-21T22:30:28.315Z,9.77
2023-05-21T22:32:57.498Z,9.80
2023-05-21T22:35:25.747Z,8.43
2023-05-21T22:37:53.989Z,9.07
2023-05-21T22:40:23.637Z,8.90
2023-05-21T22:42:52.079Z,9.57
2023-05-21T22:45:21.736Z,9.97
2023-05-21T22:47:51.921Z,9.80
2023-05-21T22:50:20.227Z,10.30
2023-05-21T22:52:48.595Z,9.93
2023-05-21T22:55:16.978Z,9.50
2023-05-21T22:57:46.863Z,9.70
2023-05-21T23:00:19.256Z,13.20
2023-05-21T23:02:48.142Z,10.00
2023-05-21T23:05:16.934Z,10.30
2023-05-21T23:07:45.147Z,10.20
2023-05-21T23:10:13.462Z,9.93
2023-05-21T23:12:41.961Z,10.67
2023-05-21T23:15:12.583Z,10.97
2023-05-21T23:17:40.876Z,11.73
2023-05-21T23:20:10.582Z,10.13
2023-05-21T23:22:38.821Z,10.03
2023-05-21T23:25:08.388Z,11.10
2023-05-21T23:27:36.557Z,11.53
2023-05-21T23:30:05.246Z,10.23
2023-05-21T23:32:34.961Z,10.47
2023-05-21T23:35:03.423Z,10.90
2023-05-21T23:37:32.103Z,11.23
2023-05-21T23:40:00.540Z,12.00
2023-05-21T23:42:28.959Z,11.90
2023-05-21T23:44:57.248Z,13.63
2023-05-21T23:47:25.930Z,11.70
2023-05-21T23:49:55.769Z,12.40
2023-05-21T23:52:24.213Z,13.57
2023-05-21T23:54:52.563Z,12.60
2023-05-21T23:57:20.879Z,11.20
2023-05-21T23:59:49.167Z,12.70
